createdAt,value
2018-01-28T00:01:17.604Z,34.63
2018-01-28T00:03:45.615Z,24.77
2018-01-28T00:06:13.376Z,29.90
2018-01-28T00:08:41.130Z,30.13
2018-01-28T00:11:08.879Z,34.73
2018-01-28T00:13:36.660Z,34.73
2018-01-28T00:16:07.102Z,35.60
2018-01-28T00:18:36.447Z,31.63
2018-01-28T00:21:04.640Z,31.73
2018-01-28T00:23:32.426Z,29.57
2018-01-28T00:26:00.251Z,32.00
2018-01-28T00:28:28.440Z,37.93
2018-01-28T00:30:56.320Z,34.80
2018-01-28T00:33:24.311Z,35.03
2018-01-28T00:35:52.091Z,35.60
2018-01-28T00:38:19.808Z,33.37
2018-01-28T00:40:47.556Z,38.80
2018-01-28T00:43:15.306Z,41.53
2018-01-28T00:45:43.816Z,32.63
2018-01-28T00:48:11.564Z,38.10
2018-01-28T00:50:39.377Z,35.23
2018-01-28T00:53:07.133Z,32.00
2018-01-28T00:55:34.794Z,43.40
2018-01-28T00:58:02.648Z,37.07
2018-01-28T01:00:30.356Z,35.47
2018-01-28T01:02:58.076Z,34.93
2018-01-28T01:05:26.268Z,35.73
2018-01-28T01:07:54.018Z,33.50
2018-01-28T01:10:26.506Z,33.67
2018-01-28T01:12:54.740Z,34.70
2018-01-28T01:15:22.546Z,38.00
2018-01-28T01:17:50.301Z,38.40
2018-01-28T01:20:18.400Z,40.07
2018-01-28T01:22:46.282Z,38.57
2018-01-28T01:25:14.357Z,35.20
2018-01-28T01:27:42.228Z,41.33
2018-01-28T01:30:10.466Z,41.50
2018-01-28T01:32:38.216Z,37.00
2018-01-28T01:35:05.991Z,35.47
2018-01-28T01:37:33.751Z,34.33
2018-01-28T01:40:01.505Z,33.60
2018-01-28T01:42:29.291Z,36.40
2018-01-28T01:44:57.257Z,45.27
2018-01-28T01:47:25.042Z,33.10
2018-01-28T01:49:52.810Z,30.13
2018-01-28T01:52:21.252Z,28.50
2018-01-28T01:54:49.037Z,31.17
2018-01-28T01:57:16.774Z,24.60
2018-01-28T01:59:44.981Z,30.47
2018-01-28T02:02:12.795Z,29.57
2018-01-28T02:04:41.002Z,29.57
2018-01-28T02:07:08.877Z,29.10
2018-01-28T02:09:36.625Z,30.00
2018-01-28T02:12:04.587Z,40.53
2018-01-28T02:14:32.334Z,35.13
2018-01-28T02:17:00.150Z,34.03
2018-01-28T02:19:27.919Z,36.97
2018-01-28T02:21:55.659Z,40.97
2018-01-28T02:24:23.710Z,43.00
2018-01-28T02:26:51.438Z,41.70
2018-01-28T02:29:19.205Z,52.63
2018-01-28T02:31:47.019Z,52.80
2018-01-28T02:34:14.811Z,48.80
2018-01-28T02:36:42.954Z,54.00
2018-01-28T02:39:11.220Z,66.80
2018-01-28T02:41:38.988Z,61.60
2018-01-28T02:44:06.813Z,56.77
2018-01-28T02:46:35.038Z,71.77
2018-01-28T02:49:02.766Z,72.67
2018-01-28T02:51:30.495Z,79.27
2018-01-28T02:53:58.510Z,79.67
2018-01-28T02:56:26.242Z,78.23
2018-01-28T02:58:54.019Z,78.73
2018-01-28T03:01:21.778Z,66.50
2018-01-28T03:03:49.543Z,67.47
2018-01-28T03:06:17.302Z,65.30
2018-01-28T03:08:45.178Z,75.27
2018-01-28T03:11:12.957Z,72.17
2018-01-28T03:13:40.731Z,68.40
2018-01-28T03:16:08.572Z,62.93
2018-01-28T03:18:36.401Z,60.67
2018-01-28T03:21:04.170Z,60.03
2018-01-28T03:23:32.081Z,55.67
2018-01-28T03:25:59.799Z,54.57
2018-01-28T03:28:27.556Z,76.37
2018-01-28T03:30:55.332Z,72.27
2018-01-28T03:33:23.159Z,48.83
2018-01-28T03:35:50.966Z,54.00
2018-01-28T03:38:18.840Z,54.13
2018-01-28T03:40:46.610Z,53.90
2018-01-28T03:43:15.924Z,47.30
2018-01-28T03:45:45.686Z,55.83
2018-01-28T03:48:13.415Z,54.00
2018-01-28T03:50:41.207Z,61.23
2018-01-28T03:53:08.995Z,49.97
2018-01-28T03:55:36.811Z,49.07
2018-01-28T03:58:04.532Z,49.23
2018-01-28T04:00:32.434Z,45.37
2018-01-28T04:03:00.135Z,52.17
2018-01-28T04:05:27.847Z,55.10
2018-01-28T04:07:55.593Z,70.70
2018-01-28T04:10:23.283Z,49.17
2018-01-28T04:12:51.070Z,47.37
2018-01-28T04:15:18.839Z,46.27
2018-01-28T04:17:46.639Z,50.07
2018-01-28T04:20:14.324Z,55.73
2018-01-28T04:22:42.119Z,49.30
2018-01-28T04:25:09.855Z,50.13
2018-01-28T04:27:37.630Z,51.17
2018-01-28T04:30:05.460Z,61.13
2018-01-28T04:32:33.200Z,53.60
2018-01-28T04:35:00.965Z,74.20
2018-01-28T04:37:28.664Z,50.13
2018-01-28T04:39:56.443Z,53.20
2018-01-28T04:42:24.221Z,52.10
2018-01-28T04:44:52.047Z,54.03
2018-01-28T04:47:19.806Z,49.30
2018-01-28T04:49:47.567Z,53.30
2018-01-28T04:52:15.333Z,49.60
2018-01-28T04:54:43.094Z,49.37
2018-01-28T04:57:10.941Z,44.90
2018-01-28T04:59:39.032Z,53.27
2018-01-28T05:02:06.832Z,40.23
2018-01-28T05:04:35.185Z,53.57
2018-01-28T05:07:02.921Z,46.73
2018-01-28T05:09:30.820Z,44.50
2018-01-28T05:11:58.881Z,58.57
2018-01-28T05:14:26.628Z,45.10
2018-01-28T05:16:54.425Z,50.70
2018-01-28T05:19:22.170Z,37.17
2018-01-28T05:21:49.959Z,51.63
2018-01-28T05:24:17.697Z,46.93
2018-01-28T05:26:45.485Z,34.10
2018-01-28T05:29:13.203Z,33.47
2018-01-28T05:31:41.328Z,41.17
2018-01-28T05:34:09.115Z,40.57
2018-01-28T05:36:36.888Z,29.07
2018-01-28T05:39:04.712Z,35.07
2018-01-28T05:41:32.416Z,41.43
2018-01-28T05:44:00.568Z,43.77
2018-01-28T05:46:28.311Z,40.00
2018-01-28T05:48:56.147Z,34.93
2018-01-28T05:51:23.871Z,31.23
2018-01-28T05:53:51.627Z,45.47
2018-01-28T05:56:19.355Z,33.27
2018-01-28T05:58:47.103Z,32.90
2018-01-28T06:01:15.270Z,39.07
2018-01-28T06:03:43.002Z,39.73
2018-01-28T06:06:10.699Z,32.27
2018-01-28T06:08:38.442Z,40.03
2018-01-28T06:11:06.217Z,38.97
2018-01-28T06:13:33.946Z,46.03
2018-01-28T06:16:01.728Z,39.47
2018-01-28T06:18:29.513Z,29.77
2018-01-28T06:20:57.348Z,36.73
2018-01-28T06:23:25.110Z,32.80
2018-01-28T06:25:52.847Z,35.60
2018-01-28T06:28:20.593Z,34.40
2018-01-28T06:30:48.317Z,36.67
2018-01-28T06:33:16.076Z,36.53
2018-01-28T06:35:43.860Z,41.13
2018-01-28T06:38:11.640Z,25.83
2018-01-28T06:40:39.370Z,38.53
2018-01-28T06:43:07.107Z,26.37
2018-01-28T06:45:36.402Z,25.30
2018-01-28T06:48:04.109Z,32.83
2018-01-28T06:50:32.275Z,30.77
2018-01-28T06:53:00.072Z,31.33
2018-01-28T06:55:27.974Z,28.03
2018-01-28T06:57:56.023Z,29.13
2018-01-28T07:00:25.875Z,21.97
2018-01-28T07:02:56.610Z,24.17
2018-01-28T07:05:24.496Z,18.87
2018-01-28T07:07:52.331Z,26.40
2018-01-28T07:10:20.141Z,29.97
2018-01-28T07:12:48.144Z,28.63
2018-01-28T07:15:25.600Z,28.00
2018-01-28T07:17:54.872Z,39.30
2018-01-28T07:20:23.311Z,25.10
2018-01-28T07:22:51.158Z,24.50
2018-01-28T07:25:24.196Z,34.30
2018-01-28T07:28:02.149Z,44.77
2018-01-28T07:30:30.211Z,30.10
2018-01-28T07:32:57.948Z,23.47
2018-01-28T07:35:26.616Z,23.13
2018-01-28T07:37:54.446Z,35.80
2018-01-28T07:40:22.323Z,33.33
2018-01-28T07:42:51.186Z,20.20
2018-01-28T07:45:18.975Z,33.47
2018-01-28T07:47:46.785Z,27.90
2018-01-28T07:50:17.277Z,22.17
2018-01-28T07:52:45.386Z,29.00
2018-01-28T07:55:14.192Z,26.57
2018-01-28T07:57:42.137Z,27.50
2018-01-28T08:00:10.137Z,16.50
2018-01-28T08:02:40.027Z,24.73
2018-01-28T08:05:12.323Z,21.97
2018-01-28T08:07:40.311Z,24.10
2018-01-28T08:13:23.946Z,19.03
2018-01-28T08:15:53.486Z,33.47
2018-01-28T08:18:21.704Z,22.43
2018-01-28T08:20:51.449Z,22.23
2018-01-28T08:23:19.323Z,32.37
2018-01-28T08:25:47.077Z,24.93
2018-01-28T08:28:17.276Z,24.70
2018-01-28T08:30:45.143Z,25.33
2018-01-28T08:33:12.923Z,36.03
2018-01-28T08:35:40.774Z,22.80
2018-01-28T08:38:08.559Z,34.83
2018-01-28T08:40:36.336Z,23.87
2018-01-28T08:43:05.345Z,29.00
2018-01-28T08:45:35.026Z,40.93
2018-01-28T08:48:04.706Z,25.43
2018-01-28T08:50:36.985Z,21.37
2018-01-28T08:53:08.561Z,44.30
2018-01-28T08:55:36.303Z,27.03
2018-01-28T08:58:04.898Z,29.47
2018-01-28T09:00:32.792Z,30.30
2018-01-28T09:03:00.549Z,38.53
2018-01-28T09:05:29.853Z,23.47
2018-01-28T09:07:57.518Z,32.30
2018-01-28T09:10:25.334Z,26.00
2018-01-28T09:13:01.620Z,44.67
2018-01-28T09:15:29.712Z,27.97
2018-01-28T09:17:57.384Z,31.33
2018-01-28T09:20:25.129Z,25.57
2018-01-28T09:22:52.854Z,26.13
2018-01-28T09:25:20.647Z,27.17
2018-01-28T09:27:48.396Z,29.57
2018-01-28T09:30:16.108Z,31.20
2018-01-28T09:32:43.827Z,26.07
2018-01-28T09:35:11.511Z,16.50
2018-01-28T09:37:39.194Z,29.13
2018-01-28T09:40:07.434Z,22.53
2018-01-28T09:42:35.247Z,20.03
2018-01-28T09:45:02.982Z,35.87
2018-01-28T09:47:30.781Z,42.70
2018-01-28T09:49:58.982Z,30.90
2018-01-28T09:52:27.165Z,30.63
2018-01-28T09:54:54.897Z,31.83
2018-01-28T09:57:22.565Z,26.90
2018-01-28T09:59:50.708Z,33.00
2018-01-28T10:02:18.418Z,29.33
2018-01-28T10:04:46.163Z,52.87
2018-01-28T10:07:16.235Z,24.03
2018-01-28T10:09:43.975Z,20.33
2018-01-28T10:12:11.686Z,33.50
2018-01-28T10:14:39.502Z,27.43
2018-01-28T10:17:07.597Z,23.47
2018-01-28T10:19:35.314Z,25.13
2018-01-28T10:22:03.099Z,26.63
2018-01-28T10:24:34.823Z,33.70
2018-01-28T10:27:02.868Z,26.33
2018-01-28T10:29:30.689Z,27.90
2018-01-28T10:31:58.449Z,20.83
2018-01-28T10:34:26.651Z,24.53
2018-01-28T10:36:54.828Z,26.43
2018-01-28T10:39:22.634Z,35.93
2018-01-28T10:41:50.385Z,26.13
2018-01-28T10:44:18.361Z,38.47
2018-01-28T10:46:46.130Z,24.20
2018-01-28T10:49:13.911Z,28.60
2018-01-28T10:51:41.699Z,27.17
2018-01-28T10:54:09.477Z,32.07
2018-01-28T10:56:37.262Z,26.40
2018-01-28T10:59:04.992Z,18.90
2018-01-28T11:01:32.730Z,35.27
2018-01-28T11:04:00.528Z,20.73
2018-01-28T11:06:28.461Z,42.03
2018-01-28T11:08:56.196Z,22.60
2018-01-28T11:11:23.857Z,24.20
2018-01-28T11:13:51.590Z,23.20
2018-01-28T11:16:19.456Z,20.77
2018-01-28T11:18:47.194Z,27.07
2018-01-28T11:21:14.939Z,46.23
2018-01-28T11:23:42.659Z,26.10
2018-01-28T11:26:10.415Z,24.17
2018-01-28T11:28:38.495Z,19.80
2018-01-28T11:31:06.159Z,30.10
2018-01-28T11:33:34.230Z,25.80
2018-01-28T11:36:01.906Z,18.53
2018-01-28T11:38:29.605Z,28.43
2018-01-28T11:40:57.323Z,33.40
2018-01-28T11:43:25.374Z,21.50
2018-01-28T11:45:53.463Z,24.10
2018-01-28T11:48:21.223Z,24.47
2018-01-28T11:50:48.998Z,20.40
2018-01-28T11:53:16.662Z,32.70
2018-01-28T11:55:44.388Z,38.07
2018-01-28T11:58:12.143Z,26.30
2018-01-28T12:00:39.865Z,27.40
2018-01-28T12:03:07.537Z,35.27
2018-01-28T12:05:35.297Z,40.00
2018-01-28T12:08:03.099Z,23.23
2018-01-28T12:10:30.903Z,30.90
2018-01-28T12:12:58.614Z,33.43
2018-01-28T12:15:26.328Z,18.43
2018-01-28T12:17:54.053Z,27.77
2018-01-28T12:20:21.752Z,28.73
2018-01-28T12:22:49.446Z,22.37
2018-01-28T12:25:17.255Z,34.27
2018-01-28T12:27:45.364Z,26.57
2018-01-28T12:30:13.452Z,24.33
2018-01-28T12:32:41.307Z,22.93
2018-01-28T12:35:15.221Z,27.07
2018-01-28T12:37:43.486Z,28.97
2018-01-28T12:40:11.219Z,16.57
2018-01-28T12:42:38.938Z,28.20
2018-01-28T12:45:06.989Z,26.20
2018-01-28T12:47:34.660Z,16.07
2018-01-28T12:50:02.330Z,24.63
2018-01-28T12:52:30.143Z,31.73
2018-01-28T12:54:57.831Z,33.53
2018-01-28T12:57:25.528Z,17.60
2018-01-28T12:59:53.873Z,43.03
2018-01-28T13:02:25.440Z,24.40
2018-01-28T13:04:53.199Z,27.50
2018-01-28T13:07:20.945Z,21.10
2018-01-28T13:09:48.743Z,27.03
2018-01-28T13:12:19.459Z,23.57
2018-01-28T13:14:47.218Z,21.73
2018-01-28T13:17:14.966Z,24.80
2018-01-28T13:19:42.702Z,24.13
2018-01-28T13:22:10.346Z,19.37
2018-01-28T13:24:38.856Z,22.43
2018-01-28T13:27:10.335Z,19.13
2018-01-28T13:29:38.103Z,30.80
2018-01-28T13:32:05.845Z,30.00
2018-01-28T13:34:33.649Z,24.93
2018-01-28T13:37:01.421Z,22.93
2018-01-28T13:39:30.055Z,28.67
2018-01-28T13:41:57.826Z,25.03
2018-01-28T13:44:25.539Z,25.27
2018-01-28T13:46:53.304Z,32.63
2018-01-28T13:49:21.396Z,21.17
2018-01-28T13:51:49.224Z,15.73
2018-01-28T13:54:17.624Z,20.37
2018-01-28T13:56:45.890Z,18.67
2018-01-28T13:59:13.649Z,32.73
2018-01-28T14:01:41.417Z,25.63
2018-01-28T14:04:09.161Z,18.90
2018-01-28T14:06:38.079Z,20.10
2018-01-28T14:09:05.842Z,17.33
2018-01-28T14:11:35.828Z,20.63
2018-01-28T14:14:06.413Z,24.33
2018-01-28T14:16:34.160Z,16.43
2018-01-28T14:19:05.720Z,27.40
2018-01-28T14:21:33.457Z,23.93
2018-01-28T14:24:01.213Z,23.10
2018-01-28T14:26:29.029Z,15.43
2018-01-28T14:28:56.779Z,19.73
2018-01-28T14:31:24.642Z,22.77
2018-01-28T14:33:52.387Z,20.00
2018-01-28T14:36:20.153Z,26.40
2018-01-28T14:38:48.575Z,25.23
2018-01-28T14:41:17.486Z,14.30
2018-01-28T14:43:46.928Z,32.30
2018-01-28T14:46:14.650Z,15.30
2018-01-28T14:48:43.581Z,16.87
2018-01-28T14:51:11.288Z,24.10
2018-01-28T14:53:39.101Z,21.43
2018-01-28T14:56:06.843Z,19.57
2018-01-28T14:58:35.158Z,23.10
2018-01-28T15:01:02.898Z,21.97
2018-01-28T15:03:31.094Z,24.87
2018-01-28T15:05:58.750Z,26.93
2018-01-28T15:08:26.491Z,28.03
2018-01-28T15:10:54.339Z,17.70
2018-01-28T15:13:22.030Z,14.80
2018-01-28T15:15:49.775Z,17.50
2018-01-28T15:18:18.702Z,18.73
2018-01-28T15:20:46.380Z,19.43
2018-01-28T15:23:14.348Z,12.10
2018-01-28T15:25:43.178Z,15.17
2018-01-28T15:28:10.963Z,13.33
2018-01-28T15:30:40.435Z,14.77
2018-01-28T15:33:08.166Z,19.50
2018-01-28T15:35:39.059Z,12.90
2018-01-28T15:38:07.025Z,12.10
2018-01-28T15:40:38.361Z,11.80
2018-01-28T15:43:28.597Z,17.13
2018-01-28T15:46:36.555Z,16.53
2018-01-28T16:12:22.064Z,12.20
2018-01-28T16:14:54.460Z,13.47
2018-01-28T16:17:22.464Z,17.50
2018-01-28T16:22:51.272Z,19.23
2018-01-28T16:25:19.212Z,16.30
2018-01-28T16:28:00.748Z,20.43
2018-01-28T16:30:28.587Z,10.00
2018-01-28T16:33:22.103Z,17.87
2018-01-28T16:35:58.078Z,13.10
2018-01-28T16:38:25.855Z,12.53
2018-01-28T16:40:53.624Z,16.67
2018-01-28T16:43:21.373Z,23.90
2018-01-28T16:45:52.599Z,21.63
2018-01-28T16:48:20.409Z,17.73
2018-01-28T16:50:48.201Z,21.87
2018-01-28T16:53:15.979Z,20.30
2018-01-28T16:55:43.727Z,38.47
2018-01-28T16:58:16.747Z,27.27
2018-01-28T17:00:44.951Z,21.80
2018-01-28T17:03:12.672Z,25.57
2018-01-28T17:05:42.043Z,13.83
2018-01-28T17:08:09.803Z,20.23
2018-01-28T17:10:38.484Z,22.40
2018-01-28T17:13:13.284Z,25.50
2018-01-28T17:15:43.765Z,30.50
2018-01-28T17:18:14.322Z,24.70
2018-01-28T17:20:42.057Z,25.07
2018-01-28T17:23:09.774Z,21.87
2018-01-28T17:25:41.308Z,25.13
2018-01-28T17:28:09.048Z,22.23
2018-01-28T17:30:45.893Z,29.77
2018-01-28T17:33:13.716Z,27.80
2018-01-28T17:35:49.836Z,37.97
2018-01-28T17:38:17.616Z,32.40
2018-01-28T17:40:50.235Z,37.80
2018-01-28T17:43:18.065Z,28.17
2018-01-28T17:45:47.918Z,27.47
2018-01-28T17:48:17.201Z,31.17
2018-01-28T17:50:44.889Z,34.23
2018-01-28T17:53:13.292Z,30.23
2018-01-28T17:55:42.929Z,28.50
2018-01-28T17:58:10.951Z,28.50
2018-01-28T18:00:38.699Z,29.87
2018-01-28T18:03:07.423Z,26.30
2018-01-28T18:05:37.375Z,23.50
2018-01-28T18:08:05.180Z,31.20
2018-01-28T18:10:33.227Z,31.30
2018-01-28T18:13:01.040Z,30.50
2018-01-28T18:15:28.781Z,36.80
2018-01-28T18:17:57.700Z,28.80
2018-01-28T18:20:25.484Z,30.93
2018-01-28T18:22:53.979Z,34.00
2018-01-28T18:25:22.477Z,26.50
2018-01-28T18:27:50.422Z,26.37
2018-01-28T18:30:21.197Z,31.17
2018-01-28T18:32:50.415Z,29.03
2018-01-28T18:35:20.112Z,31.97
2018-01-28T18:37:48.902Z,28.93
2018-01-28T18:40:18.853Z,31.10
2018-01-28T18:42:46.778Z,31.73
2018-01-28T18:45:14.493Z,30.40
2018-01-28T18:48:09.195Z,30.00
2018-01-28T18:50:37.106Z,32.30
2018-01-28T18:53:12.108Z,42.67
2018-01-28T18:55:43.928Z,32.10
2018-01-28T18:58:16.851Z,28.83
2018-01-28T19:00:49.889Z,36.47
2018-01-28T19:03:24.826Z,35.03
2018-01-28T19:05:56.915Z,27.50
2018-01-28T19:16:40.483Z,32.27
2018-01-28T19:19:08.280Z,33.37
2018-01-28T19:21:36.099Z,30.13
2018-01-28T19:24:04.002Z,42.83
2018-01-28T19:26:32.247Z,43.40
2018-01-28T19:29:01.749Z,39.00
2018-01-28T19:31:52.588Z,37.40
2018-01-28T19:34:20.596Z,34.30
2018-01-28T19:37:00.757Z,50.60
2018-01-28T19:39:29.862Z,39.73
2018-01-28T19:44:37.395Z,38.17
2018-01-28T19:47:05.654Z,41.20
2018-01-28T19:49:38.676Z,43.23
2018-01-28T19:52:06.545Z,36.63
2018-01-28T19:54:43.309Z,40.20
2018-01-28T19:57:52.491Z,33.70
2018-01-28T20:00:21.955Z,38.53
2018-01-28T20:02:52.380Z,41.57
2018-01-28T20:05:21.956Z,44.00
2018-01-28T20:07:49.753Z,37.77
2018-01-28T20:10:17.577Z,46.03
2018-01-28T20:12:45.508Z,39.27
2018-01-28T20:15:13.308Z,43.33
2018-01-28T20:17:41.172Z,30.13
2018-01-28T20:20:08.992Z,29.67
2018-01-28T20:22:43.705Z,41.33
2018-01-28T20:25:12.266Z,37.17
2018-01-28T20:27:40.047Z,45.93
2018-01-28T20:30:07.874Z,33.93
2018-01-28T20:32:35.903Z,41.60
2018-01-28T20:35:10.341Z,39.53
2018-01-28T20:37:39.498Z,36.87
2018-01-28T20:40:07.319Z,46.73
2018-01-28T20:42:36.350Z,42.70
2018-01-28T20:45:04.457Z,38.07
2018-01-28T20:47:34.122Z,38.27
2018-01-28T20:50:01.933Z,46.63
2018-01-28T20:52:33.340Z,44.40
2018-01-28T20:55:01.195Z,44.80
2018-01-28T20:57:29.955Z,42.17
2018-01-28T20:59:57.909Z,39.00
2018-01-28T21:02:38.638Z,31.93
2018-01-28T21:05:06.420Z,38.23
2018-01-28T21:07:35.298Z,32.83
2018-01-28T21:10:03.094Z,39.77
2018-01-28T21:12:32.181Z,31.27
2018-01-28T21:15:00.055Z,29.87
2018-01-28T21:17:30.863Z,38.47
2018-01-28T21:19:59.333Z,25.10
2018-01-28T21:22:30.861Z,45.77
2018-01-28T21:24:58.665Z,34.53
2018-01-28T21:27:26.385Z,34.23
2018-01-28T21:29:54.193Z,31.50
2018-01-28T21:32:23.866Z,26.40
2018-01-28T21:34:51.675Z,38.30
2018-01-28T21:37:24.062Z,32.07
2018-01-28T21:39:51.888Z,33.47
2018-01-28T21:42:19.990Z,36.70
2018-01-28T21:44:47.740Z,26.17
2018-01-28T21:47:17.033Z,32.70
2018-01-28T21:49:54.805Z,31.27
2018-01-28T21:52:25.414Z,31.93
2018-01-28T21:54:54.396Z,20.07
2018-01-28T21:57:28.757Z,36.40
2018-01-28T21:59:56.634Z,20.83
2018-01-28T22:02:24.397Z,26.93
2018-01-28T22:04:52.138Z,31.70
2018-01-28T22:07:19.876Z,29.10
2018-01-28T22:09:47.643Z,27.67
2018-01-28T22:12:15.407Z,24.53
2018-01-28T22:14:43.189Z,23.43
2018-01-28T22:17:10.904Z,26.90
2018-01-28T22:19:38.884Z,27.20
2018-01-28T22:22:11.642Z,26.77
2018-01-28T22:24:42.124Z,27.17
2018-01-28T22:27:14.973Z,22.80
2018-01-28T22:29:42.986Z,30.03
2018-01-28T22:34:46.248Z,24.77
2018-01-28T22:37:22.278Z,26.07
2018-01-28T22:39:50.074Z,22.07
2018-01-28T22:42:23.279Z,22.60
2018-01-28T22:44:51.186Z,43.03
2018-01-28T22:47:18.947Z,30.77
2018-01-28T22:49:53.607Z,18.83
2018-01-28T22:52:26.806Z,23.30
2018-01-28T22:54:56.187Z,18.20
2018-01-28T22:57:35.874Z,20.23
2018-01-28T23:00:03.729Z,30.07
2018-01-28T23:02:31.477Z,28.10
2018-01-28T23:05:01.179Z,24.63
2018-01-28T23:07:28.889Z,27.43
2018-01-28T23:09:56.684Z,21.47
2018-01-28T23:12:24.497Z,28.07
2018-01-28T23:14:55.173Z,19.77
2018-01-28T23:17:24.258Z,25.03
2018-01-28T23:19:52.052Z,19.77
2018-01-28T23:22:19.811Z,24.97
2018-01-28T23:24:47.931Z,20.23
2018-01-28T23:27:15.693Z,16.43
2018-01-28T23:29:44.084Z,17.00
2018-01-28T23:32:11.769Z,24.43
2018-01-28T23:34:40.616Z,19.67
2018-01-28T23:37:08.463Z,16.13
2018-01-28T23:39:36.244Z,28.80
2018-01-28T23:42:04.052Z,23.43
2018-01-28T23:44:31.843Z,24.13
2018-01-28T23:46:59.537Z,19.93
2018-01-28T23:49:27.426Z,28.80
2018-01-28T23:51:55.484Z,29.77
2018-01-28T23:54:23.212Z,22.77
2018-01-28T23:56:50.956Z,25.87
2018-01-28T23:59:18.736Z,24.30
